Aviation Digital Data Service (ADDS)

Output produced by METARs form (1114 UTC 16 April 2014)
found at http://aviationweather.gov/adds/metars/
 
KYNG 160758Z 1608/1706 VRB03KT P6SM SCT050 
     FM161400 06006KT P6SM SCT250 
     FM170300 08008KT P6SM BKN250